createdAt,value
2023-04-15T00:02:22.250Z,99.52
2023-04-15T00:04:50.368Z,98.01
2023-04-15T00:07:18.277Z,98.29
2023-04-15T00:09:46.113Z,98.83
2023-04-15T00:12:13.926Z,100.00
2023-04-15T00:14:41.939Z,100.00
2023-04-15T00:17:09.881Z,98.63
2023-04-15T00:19:38.943Z,100.00
2023-04-15T00:22:09.836Z,100.00
2023-04-15T00:24:37.875Z,100.00
2023-04-15T00:27:05.808Z,100.00
2023-04-15T00:29:35.672Z,100.00
2023-04-15T00:32:03.616Z,100.00
2023-04-15T00:34:32.022Z,100.00
2023-04-15T00:37:01.345Z,100.00
2023-04-15T00:39:29.716Z,100.00
2023-04-15T00:41:58.636Z,98.87
2023-04-15T00:44:26.780Z,99.03
2023-04-15T00:46:55.340Z,98.10
2023-04-15T00:49:25.946Z,100.00
2023-04-15T00:51:53.761Z,100.00
2023-04-15T00:54:23.443Z,100.00
2023-04-15T00:56:52.089Z,100.00
2023-04-15T00:59:20.110Z,100.00
2023-04-15T01:01:48.631Z,100.00
2023-04-15T01:04:17.272Z,100.00
2023-04-15T01:06:45.147Z,100.00
2023-04-15T01:09:12.928Z,100.00
2023-04-15T01:11:42.073Z,100.00
2023-04-15T01:14:10.376Z,100.00
2023-04-15T01:16:39.743Z,100.00
2023-04-15T01:19:10.085Z,100.00
2023-04-15T01:21:38.282Z,100.00
2023-04-15T01:24:10.838Z,100.00
2023-04-15T01:26:42.325Z,100.00
2023-04-15T01:29:10.881Z,100.00
2023-04-15T01:31:38.701Z,100.00
2023-04-15T01:34:06.959Z,100.00
2023-04-15T01:36:35.309Z,100.00
2023-04-15T01:39:03.325Z,100.00
2023-04-15T01:41:31.112Z,100.00
2023-04-15T01:44:00.654Z,100.00
2023-04-15T01:46:28.442Z,100.00
2023-04-15T01:48:56.586Z,100.00
2023-04-15T01:51:26.647Z,100.00
2023-04-15T01:53:56.988Z,100.00
2023-04-15T01:56:25.496Z,100.00
2023-04-15T01:58:53.805Z,100.00
2023-04-15T02:01:23.176Z,100.00
2023-04-15T02:03:51.259Z,100.00
2023-04-15T02:06:19.324Z,100.00
2023-04-15T02:08:50.026Z,100.00
2023-04-15T02:11:18.249Z,100.00
2023-04-15T02:13:46.556Z,100.00
2023-04-15T02:16:18.382Z,100.00
2023-04-15T02:18:48.218Z,100.00
2023-04-15T02:21:16.046Z,100.00
2023-04-15T02:23:44.029Z,100.00
2023-04-15T02:26:14.165Z,100.00
2023-04-15T02:28:41.959Z,100.00
2023-04-15T02:31:09.804Z,100.00
2023-04-15T02:33:37.788Z,100.00
2023-04-15T02:36:07.849Z,100.00
2023-04-15T02:38:35.596Z,100.00
2023-04-15T02:41:03.305Z,100.00
2023-04-15T02:43:36.441Z,100.00
2023-04-15T02:46:04.529Z,100.00
2023-04-15T02:48:32.873Z,100.00
2023-04-15T02:51:16.081Z,100.00
2023-04-15T02:53:44.107Z,100.00
2023-04-15T02:56:12.599Z,100.00
2023-04-15T02:58:43.350Z,100.00
2023-04-15T03:01:11.454Z,100.00
2023-04-15T03:03:40.087Z,100.00
2023-04-15T03:06:08.916Z,100.00
2023-04-15T03:08:38.172Z,100.00
2023-04-15T03:11:06.247Z,100.00
2023-04-15T03:13:36.285Z,100.00
2023-04-15T03:16:11.661Z,100.00
2023-04-15T03:18:39.892Z,100.00
2023-04-15T03:21:08.584Z,100.00
2023-04-15T03:23:40.309Z,100.00
2023-04-15T03:26:08.022Z,100.00
2023-04-15T03:28:35.816Z,100.00
2023-04-15T03:31:03.708Z,100.00
2023-04-15T03:33:31.919Z,100.00
2023-04-15T03:36:00.599Z,100.00
2023-04-15T03:38:31.431Z,100.00
2023-04-15T03:41:00.697Z,100.00
2023-04-15T03:43:28.351Z,100.00
2023-04-15T03:45:56.252Z,100.00
2023-04-15T03:48:24.139Z,100.00
2023-04-15T03:50:52.096Z,100.00
2023-04-15T03:53:19.875Z,100.00
2023-04-15T03:55:47.771Z,100.00
2023-04-15T03:58:16.806Z,100.00
2023-04-15T04:00:44.782Z,100.00
2023-04-15T04:03:12.826Z,100.00
2023-04-15T04:05:41.630Z,100.00
2023-04-15T04:08:09.356Z,100.00
2023-04-15T04:10:37.335Z,100.00
2023-04-15T04:13:05.122Z,100.00
2023-04-15T04:15:34.289Z,100.00
2023-04-15T04:18:02.073Z,100.00
2023-04-15T04:20:31.946Z,100.00
2023-04-15T04:22:59.856Z,100.00
2023-04-15T04:25:27.515Z,100.00
2023-04-15T04:27:55.264Z,100.00
2023-04-15T04:30:22.962Z,100.00
2023-04-15T04:32:52.486Z,100.00
2023-04-15T04:35:20.686Z,100.00
2023-04-15T04:37:48.456Z,100.00
2023-04-15T04:40:16.744Z,100.00
2023-04-15T04:42:45.024Z,100.00
2023-04-15T04:45:12.828Z,100.00
2023-04-15T04:47:40.735Z,100.00
2023-04-15T04:50:10.895Z,100.00
2023-04-15T04:52:39.162Z,100.00
2023-04-15T04:55:08.559Z,100.00
2023-04-15T04:57:37.827Z,100.00
2023-04-15T05:00:08.332Z,100.00
2023-04-15T05:02:36.810Z,100.00
2023-04-15T05:05:06.993Z,100.00
2023-04-15T05:07:37.302Z,100.00
2023-04-15T05:10:05.919Z,100.00
2023-04-15T05:12:34.288Z,100.00
2023-04-15T05:15:02.063Z,100.00
2023-04-15T05:17:31.389Z,100.00
2023-04-15T05:20:01.328Z,100.00
2023-04-15T05:22:29.155Z,100.00
2023-04-15T05:24:58.253Z,100.00
2023-04-15T05:27:28.917Z,100.00
2023-04-15T05:29:57.188Z,100.00
2023-04-15T05:32:25.018Z,100.00
2023-04-15T05:34:52.755Z,100.00
2023-04-15T05:37:22.331Z,100.00
2023-04-15T05:39:49.999Z,100.00
2023-04-15T05:42:19.193Z,100.00
2023-04-15T05:44:47.002Z,100.00
2023-04-15T05:47:14.906Z,100.00
2023-04-15T05:49:44.186Z,100.00
2023-04-15T05:52:11.876Z,100.00
2023-04-15T05:54:39.658Z,100.00
2023-04-15T05:57:07.875Z,100.00
2023-04-15T05:59:39.513Z,100.00
2023-04-15T06:02:10.914Z,100.00
2023-04-15T06:04:39.449Z,100.00
2023-04-15T06:07:07.631Z,100.00
2023-04-15T06:09:36.202Z,100.00
2023-04-15T06:12:04.298Z,100.00
2023-04-15T06:14:32.000Z,100.00
2023-04-15T06:17:01.163Z,100.00
2023-04-15T06:19:29.430Z,100.00
2023-04-15T06:21:57.299Z,100.00
2023-04-15T06:24:25.242Z,100.00
2023-04-15T06:26:54.974Z,100.00
2023-04-15T06:29:22.693Z,100.00
2023-04-15T06:31:50.561Z,100.00
2023-04-15T06:34:19.906Z,100.00
2023-04-15T06:36:48.184Z,100.00
2023-04-15T06:39:16.210Z,100.00
2023-04-15T06:41:44.162Z,100.00
2023-04-15T06:44:16.012Z,100.00
2023-04-15T06:46:43.873Z,100.00
2023-04-15T06:49:12.409Z,100.00
2023-04-15T06:51:41.680Z,100.00
2023-04-15T06:54:09.547Z,100.00
2023-04-15T06:56:37.356Z,100.00
2023-04-15T06:59:05.157Z,100.00
2023-04-15T07:01:33.008Z,100.00
2023-04-15T07:04:01.278Z,100.00
2023-04-15T07:06:29.126Z,100.00
2023-04-15T07:08:58.425Z,100.00
2023-04-15T07:11:27.394Z,100.00
2023-04-15T07:13:55.174Z,100.00
2023-04-15T07:16:23.066Z,100.00
2023-04-15T07:18:51.015Z,100.00
2023-04-15T07:21:18.824Z,100.00
2023-04-15T07:23:46.604Z,100.00
2023-04-15T07:26:15.852Z,100.00
2023-04-15T07:28:43.702Z,100.00
2023-04-15T07:31:11.449Z,100.00
2023-04-15T07:33:39.193Z,100.00
2023-04-15T07:36:10.580Z,100.00
2023-04-15T07:38:38.360Z,100.00
2023-04-15T07:41:06.299Z,100.00
2023-04-15T07:43:35.404Z,100.00
2023-04-15T07:46:03.385Z,100.00
2023-04-15T07:48:31.469Z,100.00
2023-04-15T07:51:00.558Z,100.00
2023-04-15T07:53:28.352Z,97.34
2023-04-15T07:55:56.154Z,92.10
2023-04-15T07:58:23.965Z,88.11
2023-04-15T08:00:55.052Z,85.69
2023-04-15T08:03:23.620Z,91.21
2023-04-15T08:05:51.588Z,88.80
2023-04-15T08:08:19.345Z,85.17
2023-04-15T08:10:47.197Z,85.23
2023-04-15T08:13:14.979Z,89.63
2023-04-15T08:15:43.267Z,91.88
2023-04-15T08:18:12.395Z,95.16
2023-04-15T08:20:40.169Z,96.04
2023-04-15T08:23:08.619Z,91.99
2023-04-15T08:25:36.873Z,94.44
2023-04-15T08:28:05.540Z,89.47
2023-04-15T08:30:33.391Z,86.18
2023-04-15T08:33:03.571Z,84.75
2023-04-15T08:35:34.705Z,87.25
2023-04-15T08:38:02.750Z,91.97
2023-04-15T08:40:43.758Z,92.76
2023-04-15T08:43:15.790Z,86.13
2023-04-15T08:45:44.438Z,82.63
2023-04-15T08:48:17.629Z,85.29
2023-04-15T08:50:47.526Z,83.74
2023-04-15T08:53:16.002Z,81.63
2023-04-15T08:55:45.783Z,72.30
2023-04-15T08:58:14.449Z,64.40
2023-04-15T09:00:42.868Z,56.24
2023-04-15T09:03:13.729Z,53.70
2023-04-15T09:05:41.554Z,52.10
2023-04-15T09:08:12.176Z,51.53
2023-04-15T09:10:39.989Z,55.71
2023-04-15T09:13:07.964Z,64.96
2023-04-15T09:15:39.825Z,55.62
2023-04-15T09:18:07.932Z,50.39
2023-04-15T09:20:41.050Z,62.11
2023-04-15T09:23:14.952Z,66.27
2023-04-15T09:25:43.394Z,65.57
2023-04-15T09:28:11.365Z,60.25
2023-04-15T09:30:39.255Z,57.81
2023-04-15T09:33:08.653Z,60.37
2023-04-15T09:35:38.741Z,58.94
2023-04-15T09:38:08.129Z,55.68
2023-04-15T09:40:39.167Z,53.58
2023-04-15T09:43:07.859Z,52.22
2023-04-15T09:45:37.450Z,54.65
2023-04-15T09:48:18.217Z,52.17
2023-04-15T09:50:46.189Z,51.63
2023-04-15T09:53:17.619Z,53.43
2023-04-15T09:55:48.102Z,50.81
2023-04-15T09:58:23.510Z,49.60
2023-04-15T10:00:52.883Z,50.21
2023-04-15T10:03:22.812Z,50.21
2023-04-15T10:05:52.844Z,49.77
2023-04-15T10:08:21.931Z,51.56
2023-04-15T10:10:51.860Z,53.74
2023-04-15T10:13:22.428Z,49.54
2023-04-15T10:15:54.407Z,48.99
2023-04-15T10:18:24.843Z,51.02
2023-04-15T10:20:53.579Z,45.07
2023-04-15T10:23:21.866Z,41.84
2023-04-15T10:25:53.623Z,43.28
2023-04-15T10:28:22.854Z,44.87
2023-04-15T10:30:50.855Z,46.87
2023-04-15T10:33:20.942Z,44.93
2023-04-15T10:35:50.207Z,46.16
2023-04-15T10:38:37.503Z,46.63
2023-04-15T10:41:20.165Z,49.86
2023-04-15T10:43:54.002Z,49.38
2023-04-15T10:46:35.277Z,49.85
2023-04-15T10:49:08.946Z,51.83
2023-04-15T10:51:41.569Z,49.87
2023-04-15T10:54:14.357Z,47.94
2023-04-15T10:56:44.774Z,47.62
2023-04-15T10:59:12.646Z,47.39
2023-04-15T11:01:56.723Z,48.64
2023-04-15T11:04:43.428Z,47.50
2023-04-15T11:07:11.165Z,50.22
2023-04-15T11:09:41.275Z,50.46
2023-04-15T11:12:11.990Z,48.62
2023-04-15T11:14:43.320Z,49.59
2023-04-15T11:17:11.222Z,50.71
2023-04-15T11:19:39.465Z,50.98
2023-04-15T11:22:10.759Z,49.01
2023-04-15T11:24:47.897Z,48.60
2023-04-15T11:27:23.292Z,45.27
2023-04-15T11:29:51.337Z,48.86
2023-04-15T11:32:22.892Z,46.20
2023-04-15T11:34:53.183Z,47.58
2023-04-15T11:37:29.703Z,50.02
2023-04-15T11:39:57.463Z,47.91
2023-04-15T11:42:31.574Z,49.11
2023-04-15T11:45:12.300Z,49.78
2023-04-15T11:47:43.132Z,47.57
2023-04-15T11:50:18.802Z,47.98
2023-04-15T11:52:56.861Z,46.55
2023-04-15T11:55:25.252Z,49.38
2023-04-15T11:58:08.130Z,56.52
2023-04-15T12:00:37.957Z,100.00
2023-04-15T12:03:25.471Z,100.00
2023-04-15T12:06:07.351Z,100.00
2023-04-15T12:09:12.205Z,100.00
2023-04-15T12:11:43.060Z,100.00
2023-04-15T12:14:14.646Z,100.00
2023-04-15T12:16:49.385Z,100.00
2023-04-15T12:19:23.425Z,100.00
2023-04-15T12:21:51.486Z,100.00
2023-04-15T12:24:22.651Z,100.00
2023-04-15T12:26:52.377Z,100.00
2023-04-15T12:29:25.877Z,98.48
2023-04-15T12:31:54.998Z,100.00
2023-04-15T12:34:30.393Z,98.27
2023-04-15T12:36:59.552Z,93.39
2023-04-15T12:39:30.682Z,92.36
2023-04-15T12:41:59.315Z,92.35
2023-04-15T12:44:29.510Z,90.10
2023-04-15T12:46:58.027Z,87.30
2023-04-15T12:49:26.719Z,87.75
2023-04-15T12:51:55.890Z,84.75
2023-04-15T12:54:24.035Z,86.24
2023-04-15T12:56:52.274Z,86.29
2023-04-15T12:59:19.977Z,84.09
2023-04-15T13:01:49.944Z,74.42
2023-04-15T13:04:22.213Z,70.33
2023-04-15T13:06:50.482Z,67.53
2023-04-15T13:09:18.180Z,70.64
2023-04-15T13:11:46.305Z,66.04
2023-04-15T13:14:14.053Z,66.94
2023-04-15T13:16:42.012Z,64.50
2023-04-15T13:19:11.245Z,61.95
2023-04-15T13:21:41.327Z,61.50
2023-04-15T13:24:09.745Z,64.90
2023-04-15T13:26:37.742Z,64.26
2023-04-15T13:29:05.839Z,63.15
2023-04-15T13:31:33.674Z,63.78
2023-04-15T13:34:01.866Z,63.87
2023-04-15T13:36:31.359Z,66.68
2023-04-15T13:39:00.233Z,63.29
2023-04-15T13:41:28.180Z,63.79
2023-04-15T13:43:56.793Z,61.08
2023-04-15T13:46:26.078Z,57.73
2023-04-15T13:48:56.736Z,56.89
2023-04-15T13:51:24.724Z,55.44
2023-04-15T13:53:54.600Z,58.88
2023-04-15T13:56:22.860Z,57.35
2023-04-15T13:58:51.371Z,58.27
2023-04-15T14:01:19.399Z,58.72
2023-04-15T14:03:47.356Z,58.53
2023-04-15T14:06:18.244Z,57.48
2023-04-15T14:08:46.426Z,57.41
2023-04-15T14:11:15.915Z,59.61
2023-04-15T14:13:43.673Z,60.92
2023-04-15T14:16:11.621Z,62.51
2023-04-15T14:18:39.471Z,60.03
2023-04-15T14:21:09.419Z,63.15
2023-04-15T14:23:37.306Z,67.16
2023-04-15T14:26:05.412Z,67.58
2023-04-15T14:28:34.568Z,71.68
2023-04-15T14:31:02.336Z,71.25
2023-04-15T14:33:30.088Z,69.71
2023-04-15T14:35:57.889Z,70.59
2023-04-15T14:38:25.738Z,71.58
2023-04-15T14:40:53.389Z,73.77
2023-04-15T14:43:21.713Z,74.82
2023-04-15T14:45:52.837Z,74.78
2023-04-15T14:48:21.030Z,78.78
2023-04-15T14:50:48.802Z,78.44
2023-04-15T14:53:16.682Z,76.98
2023-04-15T14:55:45.109Z,75.72
2023-04-15T14:58:13.085Z,74.90
2023-04-15T15:00:44.349Z,75.90
2023-04-15T15:03:14.764Z,71.36
2023-04-15T15:05:44.187Z,70.59
2023-04-15T15:08:12.563Z,73.02
2023-04-15T15:10:49.091Z,70.07
2023-04-15T15:13:18.352Z,70.54
2023-04-15T15:15:46.662Z,70.15
2023-04-15T15:18:16.748Z,69.10
2023-04-15T15:20:44.506Z,70.31
2023-04-15T15:23:12.326Z,70.01
2023-04-15T15:25:40.260Z,70.24
2023-04-15T15:28:08.094Z,72.84
2023-04-15T15:30:35.878Z,77.04
2023-04-15T15:33:03.691Z,81.38
2023-04-15T15:35:34.818Z,83.56
2023-04-15T15:38:05.754Z,85.17
2023-04-15T15:40:36.178Z,87.46
2023-04-15T15:43:04.521Z,94.69
2023-04-15T15:45:32.550Z,96.42
2023-04-15T15:48:00.411Z,96.98
2023-04-15T15:50:28.303Z,99.90
2023-04-15T15:52:58.647Z,100.00
2023-04-15T15:55:28.317Z,100.00
2023-04-15T15:57:56.217Z,100.00
2023-04-15T16:00:25.715Z,100.00
2023-04-15T16:03:06.872Z,100.00
2023-04-15T16:05:35.818Z,100.00
2023-04-15T16:08:05.300Z,100.00
2023-04-15T16:10:33.343Z,100.00
2023-04-15T16:13:01.927Z,100.00
2023-04-15T16:15:32.862Z,100.00
2023-04-15T16:18:00.784Z,100.00
2023-04-15T16:20:29.202Z,100.00
2023-04-15T16:22:58.818Z,100.00
2023-04-15T16:25:28.048Z,100.00
2023-04-15T16:28:05.617Z,100.00
2023-04-15T16:30:49.642Z,100.00
2023-04-15T16:33:17.510Z,100.00
2023-04-15T16:35:45.297Z,100.00
2023-04-15T16:38:13.319Z,100.00
2023-04-15T16:40:42.496Z,100.00
2023-04-15T16:43:11.268Z,100.00
2023-04-15T16:45:39.171Z,100.00
2023-04-15T16:48:08.283Z,100.00
2023-04-15T16:50:37.306Z,100.00
2023-04-15T16:53:07.523Z,100.00
2023-04-15T16:55:35.370Z,100.00
2023-04-15T16:58:05.946Z,100.00
2023-04-15T17:00:36.695Z,100.00
2023-04-15T17:03:04.806Z,100.00
2023-04-15T17:05:32.853Z,100.00
2023-04-15T17:08:00.722Z,100.00
2023-04-15T17:10:28.748Z,100.00
2023-04-15T17:12:57.537Z,100.00
2023-04-15T17:15:27.593Z,100.00
2023-04-15T17:17:55.824Z,100.00
2023-04-15T17:20:23.738Z,100.00
2023-04-15T17:22:54.183Z,100.00
2023-04-15T17:25:24.464Z,100.00
2023-04-15T17:27:52.373Z,100.00
2023-04-15T17:30:20.281Z,100.00
2023-04-15T17:32:49.607Z,100.00
2023-04-15T17:35:17.438Z,100.00
2023-04-15T17:37:45.176Z,100.00
2023-04-15T17:40:14.987Z,100.00
2023-04-15T17:42:42.818Z,100.00
2023-04-15T17:45:11.394Z,100.00
2023-04-15T17:47:39.205Z,100.00
2023-04-15T17:50:09.753Z,100.00
2023-04-15T17:52:37.976Z,100.00
2023-04-15T17:55:06.797Z,100.00
2023-04-15T17:57:34.538Z,100.00
2023-04-15T18:00:02.419Z,100.00
2023-04-15T18:02:40.880Z,100.00
2023-04-15T18:05:10.673Z,100.00
2023-04-15T18:07:38.650Z,100.00
2023-04-15T18:10:12.843Z,100.00
2023-04-15T18:12:42.407Z,100.00
2023-04-15T18:15:12.065Z,100.00
2023-04-15T18:17:39.882Z,100.00
2023-04-15T18:20:10.190Z,100.00
2023-04-15T18:22:38.144Z,100.00
2023-04-15T18:25:06.960Z,100.00
2023-04-15T18:27:38.998Z,100.00
2023-04-15T18:30:08.846Z,100.00
2023-04-15T18:32:37.521Z,100.00
2023-04-15T18:35:06.559Z,100.00
2023-04-15T18:37:35.790Z,100.00
2023-04-15T18:40:03.820Z,100.00
2023-04-15T18:42:31.673Z,100.00
2023-04-15T18:44:59.528Z,100.00
2023-04-15T18:47:27.989Z,100.00
2023-04-15T18:49:55.878Z,100.00
2023-04-15T18:52:25.040Z,100.00
2023-04-15T18:54:54.186Z,100.00
2023-04-15T18:57:23.683Z,100.00
2023-04-15T19:00:00.948Z,100.00
2023-04-15T19:02:28.833Z,100.00
2023-04-15T19:04:56.681Z,100.00
2023-04-15T19:07:24.831Z,100.00
2023-04-15T19:09:54.032Z,100.00
2023-04-15T19:12:21.797Z,100.00
2023-04-15T19:14:49.991Z,100.00
2023-04-15T19:17:17.894Z,100.00
2023-04-15T19:19:48.751Z,100.00
2023-04-15T19:22:16.910Z,100.00
2023-04-15T19:24:44.804Z,100.00
2023-04-15T19:27:15.525Z,100.00
2023-04-15T19:29:45.904Z,100.00
2023-04-15T19:32:14.296Z,100.00
2023-04-15T19:34:42.097Z,100.00
2023-04-15T19:37:10.029Z,100.00
2023-04-15T19:39:39.430Z,100.00
2023-04-15T19:42:07.154Z,100.00
2023-04-15T19:44:37.301Z,100.00
2023-04-15T19:47:05.264Z,100.00
2023-04-15T19:49:33.022Z,100.00
2023-04-15T19:52:00.704Z,100.00
2023-04-15T19:54:28.451Z,100.00
2023-04-15T19:56:56.446Z,100.00
2023-04-15T19:59:24.303Z,100.00
2023-04-15T20:01:53.886Z,100.00
2023-04-15T20:04:22.587Z,100.00
2023-04-15T20:06:51.062Z,100.00
2023-04-15T20:09:18.816Z,100.00
2023-04-15T20:12:46.793Z,100.00
2023-04-15T20:14:37.243Z,100.00
2023-04-15T20:17:07.558Z,100.00
2023-04-15T20:19:36.149Z,100.00
2023-04-15T20:22:03.893Z,100.00
2023-04-15T20:24:31.666Z,100.00
2023-04-15T20:26:59.452Z,100.00
2023-04-15T20:29:27.705Z,100.00
2023-04-15T20:31:56.289Z,100.00
2023-04-15T20:34:25.391Z,100.00
2023-04-15T20:36:56.279Z,100.00
2023-04-15T20:39:24.044Z,100.00
2023-04-15T20:41:54.692Z,100.00
2023-04-15T20:44:22.562Z,100.00
2023-04-15T20:46:52.991Z,100.00
2023-04-15T20:49:20.975Z,100.00
2023-04-15T20:51:50.623Z,100.00
2023-04-15T20:54:19.434Z,100.00
2023-04-15T20:56:47.163Z,100.00
2023-04-15T20:59:14.955Z,100.00
2023-04-15T21:01:42.788Z,100.00
2023-04-15T21:04:10.735Z,100.00
2023-04-15T21:06:38.643Z,100.00
2023-04-15T21:09:07.823Z,100.00
2023-04-15T21:14:08.763Z,100.00
2023-04-15T21:16:36.745Z,100.00
2023-04-15T21:19:04.757Z,100.00
2023-04-15T21:21:32.951Z,100.00
2023-04-15T21:24:03.627Z,100.00
2023-04-15T21:26:32.777Z,100.00
2023-04-15T21:29:00.914Z,100.00
2023-04-15T21:31:28.781Z,100.00
2023-04-15T21:33:56.654Z,100.00
2023-04-15T21:36:24.451Z,100.00
2023-04-15T21:38:52.212Z,100.00
2023-04-15T21:41:20.045Z,100.00
2023-04-15T21:43:49.411Z,100.00
2023-04-15T21:46:22.364Z,100.00
2023-04-15T21:48:53.416Z,100.00
2023-04-15T21:51:21.658Z,100.00
2023-04-15T21:53:49.578Z,100.00
2023-04-15T21:56:20.217Z,100.00
2023-04-15T21:58:49.461Z,100.00
2023-04-15T22:01:21.636Z,100.00
2023-04-15T22:03:49.858Z,100.00
2023-04-15T22:06:19.904Z,100.00
2023-04-15T22:08:56.117Z,100.00
2023-04-15T22:11:35.599Z,100.00
2023-04-15T22:14:05.329Z,100.00
2023-04-15T22:16:33.063Z,100.00
2023-04-15T22:19:02.800Z,100.00
2023-04-15T22:21:33.238Z,100.00
2023-04-15T22:24:38.238Z,100.00
2023-04-15T22:26:49.029Z,100.00
2023-04-15T22:29:18.244Z,100.00
2023-04-15T22:31:46.333Z,100.00
2023-04-15T22:34:20.537Z,100.00
2023-04-15T22:36:48.621Z,100.00
2023-04-15T22:39:16.681Z,100.00
2023-04-15T22:41:44.932Z,100.00
2023-04-15T22:44:12.932Z,100.00
2023-04-15T22:46:42.509Z,100.00
2023-04-15T22:49:11.002Z,100.00
2023-04-15T22:51:38.948Z,100.00
2023-04-15T22:54:06.715Z,100.00
2023-04-15T22:56:34.581Z,100.00
2023-04-15T22:59:02.274Z,100.00
2023-04-15T23:01:31.881Z,100.00
2023-04-15T23:04:05.956Z,100.00
2023-04-15T23:06:38.688Z,100.00
2023-04-15T23:09:06.744Z,100.00
2023-04-15T23:11:34.543Z,100.00
2023-04-15T23:14:03.021Z,100.00
2023-04-15T23:16:32.810Z,100.00
2023-04-15T23:19:02.079Z,100.00
2023-04-15T23:21:29.821Z,100.00
2023-04-15T23:23:57.569Z,100.00
2023-04-15T23:26:25.429Z,100.00
2023-04-15T23:28:53.206Z,100.00
2023-04-15T23:31:20.929Z,100.00
2023-04-15T23:33:48.881Z,100.00
2023-04-15T23:36:18.012Z,100.00
2023-04-15T23:38:46.071Z,100.00
2023-04-15T23:41:13.769Z,100.00
2023-04-15T23:43:41.486Z,100.00
2023-04-15T23:46:09.429Z,100.00
2023-04-15T23:48:37.166Z,100.00
2023-04-15T23:51:05.403Z,100.00
2023-04-15T23:53:34.925Z,100.00
2023-04-15T23:56:02.748Z,100.00
2023-04-15T23:58:31.026Z,100.00
